Time;durP1;ratioP1;P1;durP2;ratioP2;P2;SDS_P1;SDS_P2;PMS_P1;PMS_P2;Temp;Humidity;BMP_temperature;BMP_pressure;BME280_temperature;BME280_humidity;BME280_pressure;Samples;Min_cycle;Max_cycle;Signal;HPM_P1;HPM_P2
2022/12/18 00:01:52;;;;;;;59.10;26.30;;;-9.60;99.90;;;;;;4995245;28;20190;-81
2022/12/18 00:04:23;;;;;;;67.57;23.42;;;-9.60;99.90;;;;;;4994024;28;20218;-80
2022/12/18 00:06:48;;;;;;;54.38;21.75;;;-9.70;99.90;;;;;;4999322;28;20561;-83
2022/12/18 00:09:15;;;;;;;75.57;24.83;;;-9.70;99.90;;;;;;4986966;28;20217;-82
2022/12/18 00:11:40;;;;;;;65.60;26.35;;;-9.80;99.90;;;;;;5010000;28;21281;-82
2022/12/18 00:14:06;;;;;;;68.23;23.53;;;-9.70;99.90;;;;;;4988028;28;20202;-83
2022/12/18 00:16:32;;;;;;;82.37;27.67;;;-9.80;99.90;;;;;;5006933;28;20183;-85
2022/12/18 00:18:59;;;;;;;72.65;22.67;;;-9.80;99.90;;;;;;5001517;28;20242;-78
2022/12/18 00:21:25;;;;;;;45.95;20.08;;;-9.70;99.90;;;;;;5004580;28;20207;-86
2022/12/18 00:23:51;;;;;;;46.08;21.10;;;-9.70;99.90;;;;;;4989668;28;20265;-84
2022/12/18 00:26:39;;;;;;;56.33;25.33;;;-9.60;99.90;;;;;;4993634;28;20290;-83
2022/12/18 00:29:11;;;;;;;61.03;21.95;;;-9.60;99.90;;;;;;4993395;28;20191;-82
2022/12/18 00:31:37;;;;;;;49.22;23.50;;;-9.50;99.90;;;;;;4999354;28;20202;-86
2022/12/18 00:34:03;;;;;;;74.38;25.85;;;-9.50;99.90;;;;;;4990653;28;20205;-85
2022/12/18 00:36:34;;;;;;;48.47;23.05;;;-9.50;99.90;;;;;;4988707;28;20174;-82
2022/12/18 00:39:02;;;;;;;51.13;21.40;;;-9.50;99.90;;;;;;4987278;28;20190;-84
2022/12/18 00:44:15;;;;;;;58.08;21.05;;;-9.40;99.90;;;;;;4998754;28;20189;-84
2022/12/18 00:46:42;;;;;;;54.42;20.85;;;-9.30;99.90;;;;;;4999148;28;20190;-83
2022/12/18 00:49:08;;;;;;;76.55;24.55;;;-9.20;99.90;;;;;;4996888;28;20764;-85
2022/12/18 00:51:33;;;;;;;67.53;25.07;;;-9.10;99.90;;;;;;5004780;28;20201;-81
2022/12/18 00:53:59;;;;;;;61.00;21.77;;;-9.00;99.90;;;;;;5028519;28;20457;-86
2022/12/18 00:56:24;;;;;;;55.43;24.47;;;-9.00;99.90;;;;;;4997510;28;20190;-84
2022/12/18 00:58:50;;;;;;;55.23;22.73;;;-9.00;99.90;;;;;;4992561;28;20183;-85
2022/12/18 01:01:16;;;;;;;61.37;25.20;;;-8.90;99.90;;;;;;4995552;28;20206;-84
2022/12/18 01:03:42;;;;;;;42.13;19.20;;;-9.00;99.90;;;;;;4992672;28;20470;-84
2022/12/18 01:06:11;;;;;;;60.30;25.67;;;-9.10;99.90;;;;;;5006938;28;20465;-79
2022/12/18 01:08:37;;;;;;;38.58;16.95;;;-9.10;99.90;;;;;;5001845;28;20875;-84
2022/12/18 01:11:12;;;;;;;59.22;25.05;;;-9.20;99.90;;;;;;4991967;28;20218;-84
2022/12/18 01:13:38;;;;;;;55.10;21.85;;;-9.30;99.90;;;;;;4994849;28;20183;-85
2022/12/18 01:16:04;;;;;;;68.45;22.08;;;-9.40;99.90;;;;;;4996824;28;20183;-85
2022/12/18 01:18:29;;;;;;;71.87;29.20;;;-9.50;99.90;;;;;;4991848;28;20233;-83
2022/12/18 01:20:55;;;;;;;69.37;26.17;;;-9.60;99.90;;;;;;4996347;28;20453;-82
2022/12/18 01:23:20;;;;;;;77.33;28.50;;;-9.80;99.90;;;;;;4996968;28;20179;-84
2022/12/18 01:25:46;;;;;;;57.33;23.03;;;-9.80;99.90;;;;;;4990860;28;20664;-82
2022/12/18 01:28:11;;;;;;;62.87;21.83;;;-9.80;99.90;;;;;;5014168;28;20189;-85
2022/12/18 01:30:37;;;;;;;45.87;19.70;;;;;;;;;;4996780;28;20217;-88
2022/12/18 01:33:06;;;;;;;56.35;23.48;;;-9.80;99.90;;;;;;5011030;28;20207;-82
2022/12/18 01:35:32;;;;;;;56.85;23.13;;;;;;;;;;4991706;28;20528;-81
2022/12/18 01:37:58;;;;;;;55.33;22.48;;;-9.90;99.90;;;;;;4993493;28;20214;-86
2022/12/18 01:40:23;;;;;;;69.77;28.73;;;-10.00;99.90;;;;;;4989944;28;20790;-80
2022/12/18 01:42:53;;;;;;;73.20;24.90;;;-10.00;99.90;;;;;;4993965;28;20683;-82
2022/12/18 01:45:18;;;;;;;71.97;29.15;;;-10.00;99.90;;;;;;4993127;28;20178;-82
2022/12/18 01:47:52;;;;;;;60.83;23.70;;;-10.00;99.90;;;;;;4995022;28;20214;-83
2022/12/18 01:50:33;;;;;;;55.00;22.25;;;-10.00;99.90;;;;;;4995169;28;20206;-84
2022/12/18 01:53:18;;;;;;;63.50;22.80;;;-9.90;99.90;;;;;;4999997;28;20181;-84
2022/12/18 01:55:51;;;;;;;66.43;23.95;;;-9.80;99.90;;;;;;4995473;28;20207;-84
2022/12/18 01:58:18;;;;;;;50.88;20.70;;;-9.70;99.90;;;;;;4989655;28;20187;-83
2022/12/18 02:00:44;;;;;;;57.88;24.73;;;-9.60;99.90;;;;;;5005330;28;20341;-84
2022/12/18 02:03:10;;;;;;;67.47;30.03;;;-9.60;99.90;;;;;;4990957;28;20214;-83
2022/12/18 02:05:45;;;;;;;64.43;24.48;;;-9.60;99.90;;;;;;4997154;28;20186;-83
2022/12/18 02:08:16;;;;;;;58.20;23.10;;;-9.70;99.90;;;;;;4989551;28;20217;-82
2022/12/18 02:10:57;;;;;;;63.13;28.63;;;-9.80;99.90;;;;;;4984932;28;20357;-83
2022/12/18 02:13:49;;;;;;;68.88;24.85;;;-9.80;99.90;;;;;;4995071;28;20226;-82
2022/12/18 02:16:17;;;;;;;54.78;24.83;;;-9.70;99.90;;;;;;5004089;28;20214;-84
2022/12/18 02:18:48;;;;;;;63.10;24.58;;;-9.80;99.90;;;;;;4993891;28;20183;-84
2022/12/18 02:21:40;;;;;;;54.42;24.88;;;-9.80;99.90;;;;;;4988220;28;20221;-80
2022/12/18 02:24:31;;;;;;;55.03;23.20;;;-9.80;99.90;;;;;;5017097;28;20208;-83
2022/12/18 02:27:01;;;;;;;54.63;21.90;;;-9.90;99.90;;;;;;4992248;28;20191;-80
2022/12/18 02:29:37;;;;;;;44.65;19.42;;;-7.70;99.90;;;;;;4999115;28;20186;-84
2022/12/18 02:32:05;;;;;;;52.47;21.42;;;-9.80;99.90;;;;;;4998180;28;20190;-84
2022/12/18 02:34:35;;;;;;;59.83;21.67;;;-9.70;99.90;;;;;;4994314;28;20203;-85
2022/12/18 02:37:07;;;;;;;43.67;18.80;;;-9.40;99.90;;;;;;4997965;28;20183;-82
2022/12/18 02:39:35;;;;;;;58.03;22.77;;;-9.30;99.90;;;;;;5015014;28;20174;-85
2022/12/18 02:42:07;;;;;;;58.13;26.13;;;-9.40;99.90;;;;;;4998868;28;20193;-84
2022/12/18 02:44:46;;;;;;;76.97;27.75;;;-9.40;99.90;;;;;;4994891;28;20182;-85
2022/12/18 02:47:14;;;;;;;71.32;26.45;;;-9.40;99.90;;;;;;5031229;28;20253;-84
2022/12/18 02:50:21;;;;;;;57.38;21.77;;;-9.40;99.90;;;;;;5000257;28;20187;-83
2022/12/18 02:53:21;;;;;;;51.80;20.08;;;-9.20;99.90;;;;;;4989423;28;20232;-79
2022/12/18 02:55:49;;;;;;;61.65;28.45;;;-9.10;99.90;;;;;;4993740;28;20218;-84
2022/12/18 02:58:33;;;;;;;59.47;22.13;;;-8.90;99.90;;;;;;5008456;28;20561;-81
2022/12/18 03:01:15;;;;;;;64.47;26.58;;;-8.90;99.90;;;;;;4991799;28;21193;-85
2022/12/18 03:03:46;;;;;;;62.67;25.45;;;-8.90;99.90;;;;;;4992379;28;20217;-81
2022/12/18 03:06:23;;;;;;;61.17;22.80;;;-8.80;99.90;;;;;;4996121;28;20179;-85
2022/12/18 03:08:53;;;;;;;48.38;21.55;;;-8.70;99.90;;;;;;5007586;28;20186;-87
2022/12/18 03:12:22;;;;;;;48.95;18.75;;;-8.70;99.90;;;;;;4995605;28;20676;-84
2022/12/18 03:14:07;;;;;;;50.88;18.60;;;-8.30;99.90;;;;;;4992096;28;20560;-83
2022/12/18 03:16:35;;;;;;;43.05;20.90;;;-8.30;99.90;;;;;;4991207;28;20656;-82
2022/12/18 03:19:09;;;;;;;50.38;20.08;;;-8.10;99.90;;;;;;4990439;28;20178;-84
2022/12/18 03:21:40;;;;;;;47.10;20.98;;;-7.90;99.90;;;;;;4995686;28;20206;-84
2022/12/18 03:24:09;;;;;;;30.00;15.20;;;-7.90;99.90;;;;;;5007828;28;20214;-83
2022/12/18 03:26:36;;;;;;;36.97;17.30;;;-8.00;99.90;;;;;;5016980;28;20256;-83
2022/12/18 03:29:12;;;;;;;30.77;14.52;;;-7.90;99.90;;;;;;4988057;28;20567;-84
2022/12/18 03:31:41;;;;;;;36.35;14.90;;;-7.60;99.90;;;;;;4994375;28;20206;-84
2022/12/18 03:34:21;;;;;;;36.40;18.73;;;-7.40;99.90;;;;;;4989693;28;20201;-82
2022/12/18 03:36:47;;;;;;;50.03;21.05;;;-7.30;99.90;;;;;;4990893;28;20314;-82
2022/12/18 03:39:12;;;;;;;19.97;11.13;;;-7.30;99.90;;;;;;4990355;28;20275;-80
2022/12/18 03:41:44;;;;;;;46.87;14.40;;;-7.20;99.90;;;;;;4998752;28;20357;-82
2022/12/18 03:44:28;;;;;;;38.05;16.33;;;-7.10;99.90;;;;;;4989482;28;20333;-84
2022/12/18 03:47:06;;;;;;;56.55;21.63;;;-7.00;99.90;;;;;;4988371;28;20934;-83
2022/12/18 03:49:57;;;;;;;36.53;15.38;;;-6.90;99.90;;;;;;4988709;28;20178;-83
2022/12/18 03:52:30;;;;;;;58.70;26.63;;;-6.90;99.90;;;;;;4996747;28;20178;-82
2022/12/18 03:54:57;;;;;;;41.83;16.08;;;-6.80;99.90;;;;;;5009617;28;20202;-82
2022/12/18 03:57:27;;;;;;;50.22;17.52;;;-6.80;99.90;;;;;;4992763;28;20274;-83
2022/12/18 03:59:59;;;;;;;40.33;18.60;;;-6.80;99.90;;;;;;5001665;28;20290;-84
2022/12/18 04:02:25;;;;;;;30.13;13.25;;;-6.80;99.90;;;;;;5007752;28;20186;-82
2022/12/18 04:04:53;;;;;;;27.30;12.97;;;-6.80;99.90;;;;;;4998013;28;20183;-85
2022/12/18 04:07:20;;;;;;;11.40;6.10;;;-6.80;99.90;;;;;;4993662;28;20442;-84
2022/12/18 04:09:48;;;;;;;27.80;12.82;;;-6.70;99.90;;;;;;4990921;28;20289;-86
2022/12/18 04:12:14;;;;;;;26.92;9.35;;;-6.80;99.90;;;;;;5009228;28;20232;-85
2022/12/18 04:14:39;;;;;;;16.50;8.73;;;-6.70;99.90;;;;;;4996228;28;20195;-83
2022/12/18 04:17:05;;;;;;;25.77;13.47;;;-6.60;99.90;;;;;;4993124;28;20274;-87
2022/12/18 04:19:30;;;;;;;29.43;13.63;;;-6.60;99.90;;;;;;5002263;28;20608;-87
2022/12/18 04:21:56;;;;;;;19.10;8.90;;;-6.60;99.90;;;;;;5017802;28;20198;-87
2022/12/18 04:24:21;;;;;;;14.90;7.77;;;-6.60;99.90;;;;;;4997995;28;20191;-83
2022/12/18 04:26:47;;;;;;;13.40;8.50;;;-6.60;99.90;;;;;;4994287;28;22368;-85
2022/12/18 04:29:12;;;;;;;29.60;12.27;;;-6.60;99.90;;;;;;4993660;28;20723;-85
2022/12/18 04:31:38;;;;;;;23.17;11.30;;;-6.60;99.90;;;;;;4999614;28;20784;-83
2022/12/18 04:34:04;;;;;;;28.17;10.90;;;-6.50;99.90;;;;;;4998420;28;20684;-82
2022/12/18 04:36:30;;;;;;;37.30;13.93;;;-6.60;99.90;;;;;;4998625;28;20206;-86
2022/12/18 04:38:55;;;;;;;19.43;10.50;;;-6.60;99.90;;;;;;4997980;28;20244;-83
2022/12/18 04:41:21;;;;;;;26.70;11.20;;;-6.60;99.90;;;;;;5004451;28;20258;-83
2022/12/18 04:43:46;;;;;;;36.33;13.40;;;-6.60;99.90;;;;;;4991458;28;20187;-84
2022/12/18 04:46:12;;;;;;;21.47;9.63;;;-6.70;99.90;;;;;;4992550;28;20182;-83
2022/12/18 04:48:37;;;;;;;33.70;11.50;;;-6.70;99.90;;;;;;5007378;28;20190;-81
2022/12/18 04:51:04;;;;;;;35.03;13.57;;;-6.80;99.90;;;;;;5003445;28;20206;-82
2022/12/18 04:53:30;;;;;;;37.58;11.55;;;-6.80;99.90;;;;;;5017126;28;20181;-84
2022/12/18 04:56:22;;;;;;;35.73;11.80;;;-6.90;99.90;;;;;;5007647;28;20202;-85
2022/12/18 04:58:48;;;;;;;28.08;11.25;;;-7.00;99.90;;;;;;4992342;28;20544;-85
2022/12/18 05:01:15;;;;;;;36.53;14.70;;;-7.00;99.90;;;;;;4999496;28;20207;-81
2022/12/18 05:03:41;;;;;;;34.45;13.50;;;-7.10;99.90;;;;;;4994331;28;20186;-82
2022/12/18 05:06:07;;;;;;;29.67;13.83;;;-7.10;99.90;;;;;;4998137;28;20174;-82
2022/12/18 05:08:33;;;;;;;31.10;13.17;;;-7.20;99.90;;;;;;5003931;28;20182;-80
2022/12/18 05:11:04;;;;;;;40.13;14.50;;;-6.50;99.90;;;;;;5000119;28;20465;-84
2022/12/18 05:13:30;;;;;;;26.92;11.68;;;-7.30;99.90;;;;;;5000643;28;20988;-83
2022/12/18 05:15:56;;;;;;;23.23;11.70;;;-7.40;99.90;;;;;;4994782;28;20265;-83
2022/12/18 05:18:25;;;;;;;40.67;14.60;;;-7.40;99.90;;;;;;4997839;28;20652;-83
2022/12/18 05:20:52;;;;;;;39.10;18.25;;;-7.50;99.90;;;;;;4996275;28;20202;-82
2022/12/18 05:23:18;;;;;;;37.30;15.45;;;-7.60;99.90;;;;;;5011330;28;20191;-83
2022/12/18 05:25:50;;;;;;;39.35;15.57;;;-7.60;99.90;;;;;;4994906;28;20183;-84
2022/12/18 05:28:15;;;;;;;37.22;16.25;;;-7.60;99.90;;;;;;4999808;28;20203;-83
2022/12/18 05:30:41;;;;;;;42.10;16.80;;;-7.60;99.90;;;;;;4995556;28;20226;-84
2022/12/18 05:33:06;;;;;;;44.87;13.80;;;-7.70;99.90;;;;;;5012805;28;20176;-84
2022/12/18 05:35:32;;;;;;;32.37;10.77;;;;;;;;;;4996606;28;20328;-82
2022/12/18 05:37:58;;;;;;;12.80;5.50;;;-7.60;99.90;;;;;;4998231;28;20309;-81
2022/12/18 05:40:23;;;;;;;27.93;15.03;;;-7.50;99.90;;;;;;4994119;28;20616;-81
2022/12/18 05:42:49;;;;;;;16.37;6.77;;;-7.50;99.90;;;;;;4994069;28;20187;-83
2022/12/18 05:45:14;;;;;;;28.97;11.10;;;-7.30;99.90;;;;;;4990878;28;20651;-83
2022/12/18 05:47:40;;;;;;;23.87;10.80;;;-7.30;99.90;;;;;;5010172;28;20294;-84
2022/12/18 05:50:06;;;;;;;28.23;14.53;;;-7.30;99.90;;;;;;4995052;28;20194;-85
2022/12/18 05:52:32;;;;;;;34.30;14.52;;;-7.30;99.90;;;;;;4995227;28;20187;-86
2022/12/18 05:54:58;;;;;;;14.50;6.83;;;-7.30;99.90;;;;;;4994808;28;20214;-83
2022/12/18 05:57:24;;;;;;;24.35;8.05;;;-7.20;99.90;;;;;;4993093;28;20278;-83
2022/12/18 05:59:49;;;;;;;30.83;13.90;;;-7.20;99.90;;;;;;5005070;28;20202;-83
2022/12/18 06:02:15;;;;;;;34.83;14.53;;;-7.30;99.90;;;;;;4994150;28;20178;-81
2022/12/18 06:04:41;;;;;;;11.03;5.70;;;-7.30;99.90;;;;;;4995104;28;20183;-85
2022/12/18 06:07:06;;;;;;;15.83;7.97;;;-7.30;99.90;;;;;;4992478;28;20727;-82
2022/12/18 06:09:32;;;;;;;17.83;8.47;;;-7.20;99.90;;;;;;5011107;28;20233;-86
2022/12/18 06:11:57;;;;;;;21.03;9.33;;;-7.20;99.90;;;;;;4994812;28;20281;-84
2022/12/18 06:14:23;;;;;;;22.83;10.63;;;-7.20;99.90;;;;;;4989844;28;20845;-84
2022/12/18 06:16:51;;;;;;;21.97;11.00;;;-7.20;99.90;;;;;;4992227;28;20189;-85
2022/12/18 06:19:16;;;;;;;9.52;4.88;;;-7.20;99.90;;;;;;4989918;28;20646;-82
2022/12/18 06:21:43;;;;;;;23.83;12.60;;;-7.20;99.90;;;;;;4998920;28;20210;-84
2022/12/18 06:24:09;;;;;;;33.88;13.70;;;-7.20;99.90;;;;;;4992459;28;20249;-81
2022/12/18 06:26:37;;;;;;;22.13;11.20;;;-7.30;99.90;;;;;;4993935;28;20273;-86
2022/12/18 06:29:03;;;;;;;25.13;13.27;;;-7.30;99.90;;;;;;4994012;28;20197;-84
2022/12/18 06:31:28;;;;;;;36.13;14.90;;;-7.30;99.90;;;;;;4994256;28;20211;-83
2022/12/18 06:33:54;;;;;;;17.40;10.37;;;-7.40;99.90;;;;;;4996101;28;20198;-85
2022/12/18 06:36:20;;;;;;;18.87;9.30;;;-7.40;99.90;;;;;;5009632;28;20190;-78
2022/12/18 06:38:46;;;;;;;38.95;12.35;;;-7.40;99.90;;;;;;5011978;28;20265;-84
2022/12/18 06:41:14;;;;;;;27.27;13.17;;;-7.40;99.90;;;;;;4993365;28;20202;-82
2022/12/18 06:43:40;;;;;;;29.90;13.35;;;-7.50;99.90;;;;;;5007864;28;20190;-86
2022/12/18 06:46:06;;;;;;;29.70;11.77;;;-7.50;99.90;;;;;;4988394;28;20206;-82
2022/12/18 06:48:32;;;;;;;41.80;15.57;;;-7.50;99.90;;;;;;4994997;28;20190;-84
2022/12/18 06:50:58;;;;;;;38.83;14.73;;;-7.50;99.90;;;;;;4998284;28;20202;-84
2022/12/18 06:53:23;;;;;;;26.83;11.30;;;-7.50;99.90;;;;;;4992887;28;20445;-81
2022/12/18 06:55:50;;;;;;;32.67;12.70;;;;;;;;;;4993314;28;21007;-83
2022/12/18 06:58:15;;;;;;;17.92;10.57;;;-7.50;99.90;;;;;;5001846;28;20182;-82
2022/12/18 07:00:41;;;;;;;29.53;10.40;;;-7.40;99.90;;;;;;5018104;28;20221;-82
2022/12/18 07:03:07;;;;;;;32.10;12.23;;;-7.40;99.90;;;;;;4999748;28;20536;-81
2022/12/18 07:05:33;;;;;;;27.83;13.20;;;;;;;;;;5001490;28;20209;-84
2022/12/18 07:07:59;;;;;;;39.63;15.47;;;-7.10;99.90;;;;;;4998470;28;20454;-83
2022/12/18 07:10:25;;;;;;;31.40;16.27;;;-7.30;99.90;;;;;;5018043;28;20477;-82
2022/12/18 07:12:50;;;;;;;39.60;14.07;;;-7.40;99.90;;;;;;4999030;28;20477;-81
2022/12/18 07:15:16;;;;;;;37.60;15.30;;;-7.40;99.90;;;;;;4996241;28;20234;-82
2022/12/18 07:17:41;;;;;;;14.90;6.33;;;-7.40;99.90;;;;;;4998027;28;20214;-80
2022/12/18 07:20:08;;;;;;;36.47;15.20;;;-7.40;99.90;;;;;;4990634;28;20209;-84
2022/12/18 07:22:33;;;;;;;52.00;17.48;;;-7.40;99.90;;;;;;4990306;28;20175;-83
2022/12/18 07:24:59;;;;;;;45.00;17.10;;;-7.50;99.90;;;;;;5000456;28;21860;-84
2022/12/18 07:27:24;;;;;;;38.83;15.50;;;-7.40;99.90;;;;;;4989889;28;20194;-81
2022/12/18 07:29:50;;;;;;;59.97;20.90;;;-7.50;99.90;;;;;;5000497;28;23149;-82
2022/12/18 07:32:15;;;;;;;40.33;15.33;;;-7.50;99.90;;;;;;4992867;28;20194;-85
2022/12/18 07:34:41;;;;;;;62.20;18.00;;;-7.50;99.90;;;;;;4998692;28;20214;-83
2022/12/18 07:37:07;;;;;;;37.17;16.07;;;-7.50;99.90;;;;;;4991894;28;20731;-85
2022/12/18 07:39:33;;;;;;;22.80;8.00;;;;;;;;;;4992091;28;20463;-79
2022/12/18 07:44:42;;;;;;;41.30;17.25;;;-7.50;99.90;;;;;;4994162;28;20205;-79
2022/12/18 07:47:08;;;;;;;53.33;18.87;;;-7.50;99.90;;;;;;4988273;28;20190;-83
2022/12/18 07:49:34;;;;;;;30.80;13.67;;;-7.50;99.90;;;;;;5013470;28;20605;-82
2022/12/18 07:52:00;;;;;;;43.53;16.80;;;-7.50;99.90;;;;;;5010462;28;20187;-83
2022/12/18 07:54:25;;;;;;;38.15;17.42;;;-7.40;99.90;;;;;;4995210;28;20650;-81
2022/12/18 07:56:51;;;;;;;43.03;15.50;;;-7.40;99.90;;;;;;4988251;28;20187;-81
2022/12/18 07:59:18;;;;;;;40.67;16.25;;;-7.30;99.90;;;;;;5001398;28;20282;-82
2022/12/18 08:01:44;;;;;;;27.98;10.00;;;-7.30;99.90;;;;;;4994528;28;20203;-83
2022/12/18 08:04:09;;;;;;;30.13;11.60;;;-7.20;99.90;;;;;;4992022;28;21232;-83
2022/12/18 08:06:35;;;;;;;45.97;18.27;;;-7.20;99.90;;;;;;4991398;28;20265;-85
2022/12/18 08:09:00;;;;;;;53.63;18.33;;;-7.20;99.90;;;;;;5014717;28;20608;-84
2022/12/18 08:11:27;;;;;;;39.30;15.53;;;-7.30;99.90;;;;;;4999991;28;20474;-85
2022/12/18 08:13:54;;;;;;;18.17;9.55;;;-7.20;99.90;;;;;;5008680;28;20236;-84
2022/12/18 08:16:21;;;;;;;21.20;12.13;;;-7.10;99.90;;;;;;5002660;28;20199;-84
2022/12/18 08:18:48;;;;;;;30.10;13.40;;;;;;;;;;5000079;28;20209;-82
2022/12/18 08:21:22;;;;;;;30.95;10.80;;;-6.70;99.90;;;;;;4997972;28;20198;-83
2022/12/18 08:23:49;;;;;;;41.38;15.02;;;-6.60;99.90;;;;;;5006788;28;20248;-80
2022/12/18 08:26:15;;;;;;;24.67;11.13;;;;;;;;;;4995829;28;22912;-86
2022/12/18 08:28:41;;;;;;;38.00;14.95;;;-6.30;99.90;;;;;;4999256;28;20185;-85
2022/12/18 08:31:08;;;;;;;34.13;17.48;;;-6.20;99.90;;;;;;4991097;28;20583;-82
2022/12/18 08:33:34;;;;;;;39.47;16.20;;;-6.10;99.90;;;;;;4991863;28;20225;-84
2022/12/18 08:36:01;;;;;;;34.35;15.23;;;-6.00;99.90;;;;;;4995000;28;20221;-83
2022/12/18 08:38:27;;;;;;;21.75;11.27;;;-6.00;99.90;;;;;;4995560;28;20187;-84
2022/12/18 08:41:12;;;;;;;52.53;17.03;;;-5.20;99.90;;;;;;5003770;28;20200;-83
2022/12/18 08:46:24;;;;;;;29.08;12.20;;;-5.80;99.90;;;;;;4997114;28;20230;-85
2022/12/18 08:48:52;;;;;;;27.02;8.80;;;-5.80;99.90;;;;;;4999612;28;20190;-84
2022/12/18 08:51:17;;;;;;;26.60;11.32;;;-5.70;99.90;;;;;;5008252;28;20206;-84
2022/12/18 08:53:44;;;;;;;21.03;9.97;;;-5.60;99.90;;;;;;5005395;28;20351;-83
2022/12/18 08:56:10;;;;;;;23.60;10.10;;;-5.50;99.90;;;;;;4997999;28;20235;-88
2022/12/18 08:58:35;;;;;;;37.47;14.10;;;-5.50;99.90;;;;;;4997214;28;20683;-82
2022/12/18 09:01:02;;;;;;;39.33;15.20;;;-5.20;99.90;;;;;;5023211;28;20504;-83
2022/12/18 09:03:28;;;;;;;36.67;15.73;;;-5.20;99.90;;;;;;5005552;28;20193;-84
2022/12/18 09:05:53;;;;;;;41.97;18.23;;;-5.10;99.90;;;;;;5021343;28;20229;-80
2022/12/18 09:08:19;;;;;;;35.37;15.67;;;;;;;;;;5020603;28;20187;-87
2022/12/18 09:10:46;;;;;;;24.07;11.03;;;-4.60;99.90;;;;;;4999899;28;20226;-85
2022/12/18 09:13:13;;;;;;;43.85;17.05;;;-4.70;99.90;;;;;;4994876;28;20483;-85
2022/12/18 09:15:42;;;;;;;20.17;10.02;;;-4.80;99.90;;;;;;5001911;28;20282;-84
2022/12/18 09:18:09;;;;;;;21.20;10.98;;;-4.90;99.90;;;;;;5019185;28;20174;-83
2022/12/18 09:20:36;;;;;;;31.80;13.38;;;-5.00;99.90;;;;;;4995924;28;20418;-83
2022/12/18 09:23:02;;;;;;;25.10;11.48;;;-4.90;99.90;;;;;;4998052;28;20265;-84
2022/12/18 09:25:32;;;;;;;26.30;11.55;;;-4.90;99.90;;;;;;4997884;28;20211;-83
2022/12/18 09:28:17;;;;;;;26.90;11.88;;;-4.80;99.90;;;;;;4996136;28;20734;-80
2022/12/18 09:30:48;;;;;;;33.40;14.43;;;-4.70;99.90;;;;;;4997635;28;20725;-84
2022/12/18 09:33:16;;;;;;;37.33;15.30;;;-4.70;99.90;;;;;;4988445;28;20187;-83
2022/12/18 09:35:43;;;;;;;15.82;9.07;;;-4.80;99.90;;;;;;4995820;28;21002;-85
2022/12/18 09:38:11;;;;;;;20.80;9.65;;;-4.90;99.90;;;;;;5019188;28;20252;-83
2022/12/18 09:40:43;;;;;;;23.10;10.07;;;-5.00;99.90;;;;;;5013274;28;20199;-85
2022/12/18 09:43:24;;;;;;;28.98;13.45;;;-5.10;99.90;;;;;;4996542;28;20175;-84
2022/12/18 09:45:53;;;;;;;43.25;15.88;;;-5.20;99.90;;;;;;4998855;28;20235;-85
2022/12/18 09:48:26;;;;;;;27.13;11.38;;;-5.10;99.90;;;;;;4997825;28;20187;-81
2022/12/18 09:50:57;;;;;;;46.45;14.90;;;-5.10;99.90;;;;;;4996554;28;20264;-83
2022/12/18 09:53:27;;;;;;;33.33;17.70;;;-5.10;99.90;;;;;;5001614;28;20190;-84
2022/12/18 09:55:54;;;;;;;29.10;14.57;;;-5.00;99.90;;;;;;4997384;28;20289;-83
2022/12/18 09:58:45;;;;;;;23.02;12.60;;;-5.00;99.90;;;;;;5005399;28;20179;-83
2022/12/18 10:01:14;;;;;;;32.53;16.08;;;-4.90;99.90;;;;;;5018109;28;20240;-81
2022/12/18 10:03:39;;;;;;;33.30;13.82;;;-4.80;99.90;;;;;;5002267;28;20277;-81
2022/12/18 10:06:34;;;;;;;37.00;15.27;;;-4.60;99.90;;;;;;5001067;28;20630;-85
2022/12/18 10:09:09;;;;;;;22.23;8.70;;;-4.60;99.90;;;;;;4996784;28;20187;-85
2022/12/18 10:11:41;;;;;;;33.65;15.15;;;-4.50;99.90;;;;;;4998472;28;20211;-85
2022/12/18 10:14:26;;;;;;;35.00;13.73;;;-4.40;99.90;;;;;;5006474;28;20261;-83
2022/12/18 10:17:20;;;;;;;33.88;12.95;;;-4.40;99.90;;;;;;4991693;28;20193;-82
2022/12/18 10:20:29;;;;;;;41.00;15.80;;;-4.10;99.90;;;;;;5004068;28;20201;-80
2022/12/18 10:23:09;;;;;;;35.15;15.70;;;-4.10;99.90;;;;;;4992060;28;20219;-85
2022/12/18 10:25:38;;;;;;;26.98;10.20;;;-4.00;99.90;;;;;;5012223;28;22210;-84
2022/12/18 10:28:13;;;;;;;24.90;9.90;;;-3.80;99.90;;;;;;5003498;28;20191;-84
2022/12/18 10:30:40;;;;;;;32.53;14.55;;;-3.70;99.90;;;;;;4998542;28;20221;-83
2022/12/18 10:33:05;;;;;;;28.48;15.60;;;-3.70;99.90;;;;;;4995409;28;20265;-86
2022/12/18 10:35:32;;;;;;;18.90;8.20;;;-3.70;99.90;;;;;;5001317;28;20240;-83
2022/12/18 10:38:04;;;;;;;33.90;9.90;;;-3.70;99.90;;;;;;4995301;28;20274;-84
2022/12/18 10:40:31;;;;;;;30.85;12.10;;;-3.70;99.90;;;;;;4997581;28;20236;-86
2022/12/18 10:43:11;;;;;;;48.25;11.50;;;-3.60;99.90;;;;;;4989081;28;20182;-81
2022/12/18 10:45:36;;;;;;;14.13;7.72;;;-3.50;99.90;;;;;;4994296;28;20744;-84
2022/12/18 10:48:03;;;;;;;31.20;12.97;;;-3.50;99.90;;;;;;4991765;28;20191;-82
2022/12/18 10:50:34;;;;;;;34.38;15.02;;;-3.60;99.90;;;;;;4992162;28;20210;-82
2022/12/18 10:53:03;;;;;;;32.35;13.77;;;-3.60;99.90;;;;;;4998620;28;20191;-82
2022/12/18 10:55:35;;;;;;;34.22;12.25;;;-3.50;99.90;;;;;;4984027;28;20265;-81
2022/12/18 10:58:23;;;;;;;29.98;11.43;;;-3.40;99.90;;;;;;4993406;28;20281;-83
2022/12/18 11:01:08;;;;;;;18.55;7.88;;;-3.40;99.90;;;;;;4987015;28;20195;-82
2022/12/18 11:03:42;;;;;;;30.45;14.45;;;-3.40;99.90;;;;;;4984088;28;20186;-81
2022/12/18 11:06:13;;;;;;;26.90;12.13;;;-3.20;99.90;;;;;;4984424;28;20234;-83
2022/12/18 11:08:41;;;;;;;24.42;11.52;;;-3.10;99.90;;;;;;5006964;28;20213;-81
2022/12/18 11:11:19;;;;;;;19.83;8.52;;;-3.10;99.90;;;;;;5014853;28;20210;-81
2022/12/18 11:14:04;;;;;;;42.47;15.23;;;-3.00;99.90;;;;;;5007366;28;20190;-81
2022/12/18 11:16:53;;;;;;;24.08;12.25;;;-3.00;99.90;;;;;;4993229;28;20229;-81
2022/12/18 11:19:27;;;;;;;45.13;17.05;;;-3.00;99.90;;;;;;4986172;28;20197;-85
2022/12/18 11:21:53;;;;;;;42.13;15.98;;;-3.00;99.90;;;;;;4987639;28;20178;-82
2022/12/18 11:24:52;;;;;;;39.10;15.00;;;-3.10;99.90;;;;;;4991396;28;20197;-82
2022/12/18 11:27:18;;;;;;;35.88;16.25;;;-2.80;99.90;;;;;;4987040;28;20182;-85
2022/12/18 11:29:44;;;;;;;25.52;10.43;;;-2.50;99.90;;;;;;4984268;28;20296;-80
2022/12/18 11:32:35;;;;;;;41.60;18.20;;;-2.40;99.90;;;;;;4987229;28;20649;-82
2022/12/18 11:35:21;;;;;;;33.10;11.43;;;-2.30;99.90;;;;;;5005751;28;20214;-79
2022/12/18 11:38:23;;;;;;;31.55;14.10;;;-2.30;99.90;;;;;;5004427;28;22006;-82
2022/12/18 11:41:14;;;;;;;51.83;18.75;;;-2.30;99.90;;;;;;4977517;28;20228;-82
2022/12/18 11:43:53;;;;;;;37.65;16.77;;;-2.20;99.90;;;;;;4983912;28;20182;-83
2022/12/18 11:46:37;;;;;;;43.85;15.35;;;-2.20;99.90;;;;;;4978847;28;20214;-80
2022/12/18 11:49:17;;;;;;;43.03;14.05;;;-2.10;99.90;;;;;;4990927;28;20178;-81
2022/12/18 11:51:55;;;;;;;22.13;9.15;;;-2.00;99.90;;;;;;4984373;28;20201;-81
2022/12/18 11:54:21;;;;;;;44.33;17.45;;;-2.00;99.90;;;;;;4982365;28;20789;-82
2022/12/18 11:56:53;;;;;;;47.20;18.60;;;-1.80;99.90;;;;;;4985678;28;20181;-84
2022/12/18 11:59:44;;;;;;;46.28;18.75;;;-1.70;99.90;;;;;;4981519;28;20187;-82
2022/12/18 12:02:34;;;;;;;46.13;17.92;;;-1.70;99.90;;;;;;4984526;28;20217;-80
2022/12/18 12:05:30;;;;;;;42.30;16.85;;;-1.70;99.90;;;;;;4976037;28;20288;-82
2022/12/18 12:08:17;;;;;;;33.03;15.15;;;-1.70;99.90;;;;;;4976425;28;20309;-81
2022/12/18 12:10:59;;;;;;;34.65;15.75;;;-1.90;99.90;;;;;;5002690;28;20237;-82
2022/12/18 12:13:41;;;;;;;32.05;14.88;;;-2.00;99.90;;;;;;4986133;28;20276;-80
2022/12/18 12:16:26;;;;;;;47.33;16.73;;;-2.00;99.90;;;;;;4994106;28;20213;-81
2022/12/18 12:19:25;;;;;;;35.95;13.50;;;-2.00;99.90;;;;;;4992975;28;20175;-81
2022/12/18 12:22:12;;;;;;;26.08;12.15;;;-1.90;99.90;;;;;;5005354;28;20183;-84
2022/12/18 12:25:15;;;;;;;24.13;9.75;;;-1.90;99.90;;;;;;4991714;28;20218;-81
2022/12/18 12:27:55;;;;;;;30.42;10.75;;;-2.00;99.90;;;;;;5005389;28;20199;-81
2022/12/18 12:30:30;;;;;;;54.05;19.48;;;-1.90;99.90;;;;;;4991041;28;20213;-81
2022/12/18 12:33:24;;;;;;;56.33;21.08;;;-1.50;99.90;;;;;;4995610;28;20182;-82
2022/12/18 12:36:08;;;;;;;39.63;16.65;;;-1.80;99.90;;;;;;4983644;28;20214;-82
2022/12/18 12:38:49;;;;;;;57.28;20.40;;;-1.70;99.90;;;;;;4986881;28;20186;-79
2022/12/18 12:44:09;;;;;;;41.85;16.80;;;-1.50;99.90;;;;;;4974240;28;20190;-83
2022/12/18 12:46:39;;;;;;;47.08;18.80;;;-1.40;99.90;;;;;;4984114;28;20907;-81
2022/12/18 12:49:18;;;;;;;39.35;17.35;;;-1.40;99.90;;;;;;5005504;28;20625;-81
2022/12/18 12:51:49;;;;;;;51.20;20.30;;;-1.40;99.90;;;;;;5006715;28;20307;-82
2022/12/18 12:54:24;;;;;;;39.15;18.02;;;-1.40;99.90;;;;;;4991685;28;20763;-81
2022/12/18 12:57:15;;;;;;;38.60;17.83;;;-1.40;99.90;;;;;;5013515;28;20214;-80
2022/12/18 13:00:05;;;;;;;46.25;19.17;;;-1.20;99.90;;;;;;4989093;28;20237;-83
2022/12/18 13:02:35;;;;;;;36.83;16.70;;;-1.20;99.90;;;;;;4988169;28;20194;-82